sensor_id;sensor_type;location;lat;lon;timestamp;pressure;altitude;pressure_sealevel;temperature;humidity
4326;BME280;58429;49.826;10.880;2022-09-24T00:00:17;98456;;;10.35;76.39
4326;BME280;58429;49.826;10.880;2022-09-24T00:01:17;98456;;;10.34;76.39
4326;BME280;58429;49.826;10.880;2022-09-24T00:02:17;98456;;;10.33;76.43
4326;BME280;58429;49.826;10.880;2022-09-24T00:03:17;98460;;;10.33;76.39
4326;BME280;58429;49.826;10.880;2022-09-24T00:04:17;98460;;;10.34;76.36
4326;BME280;58429;49.826;10.880;2022-09-24T00:05:17;98455;;;10.33;76.65
4326;BME280;58429;49.826;10.880;2022-09-24T00:06:17;98453;;;10.33;76.68
4326;BME280;58429;49.826;10.880;2022-09-24T00:07:17;98455;;;10.33;76.58
4326;BME280;58429;49.826;10.880;2022-09-24T00:08:17;98445;;;10.34;76.5
4326;BME280;58429;49.826;10.880;2022-09-24T00:09:18;98449;;;10.33;76.53
4326;BME280;58429;49.826;10.880;2022-09-24T00:10:17;98449;;;10.32;76.8
4326;BME280;58429;49.826;10.880;2022-09-24T00:11:17;98455;;;10.3;76.71
4326;BME280;58429;49.826;10.880;2022-09-24T00:12:17;98453;;;10.33;76.71
4326;BME280;58429;49.826;10.880;2022-09-24T00:13:17;98445;;;10.31;76.96
4326;BME280;58429;49.826;10.880;2022-09-24T00:14:17;98461;;;10.34;76.66
4326;BME280;58429;49.826;10.880;2022-09-24T00:15:17;98454;;;10.3;76.65
4326;BME280;58429;49.826;10.880;2022-09-24T00:16:17;98456;;;10.33;76.69
4326;BME280;58429;49.826;10.880;2022-09-24T00:17:17;98454;;;10.34;76.69
4326;BME280;58429;49.826;10.880;2022-09-24T00:18:17;98446;;;10.33;76.76
4326;BME280;58429;49.826;10.880;2022-09-24T00:19:17;98448;;;10.34;76.67
4326;BME280;58429;49.826;10.880;2022-09-24T00:20:17;98444;;;10.35;76.7
4326;BME280;58429;49.826;10.880;2022-09-24T00:21:17;98443;;;10.33;76.6
4326;BME280;58429;49.826;10.880;2022-09-24T00:22:17;98447;;;10.32;76.58
4326;BME280;58429;49.826;10.880;2022-09-24T00:23:17;98452;;;10.31;76.55
4326;BME280;58429;49.826;10.880;2022-09-24T00:24:17;98445;;;10.33;76.58
4326;BME280;58429;49.826;10.880;2022-09-24T00:25:17;98448;;;10.3;76.94
4326;BME280;58429;49.826;10.880;2022-09-24T00:26:17;98443;;;10.26;77.13
4326;BME280;58429;49.826;10.880;2022-09-24T00:27:17;98446;;;10.25;76.96
4326;BME280;58429;49.826;10.880;2022-09-24T00:28:17;98453;;;10.22;76.92
4326;BME280;58429;49.826;10.880;2022-09-24T00:29:18;98452;;;10.24;76.89
4326;BME280;58429;49.826;10.880;2022-09-24T00:30:17;98446;;;10.23;76.97
4326;BME280;58429;49.826;10.880;2022-09-24T00:31:17;98439;;;10.26;77.13
4326;BME280;58429;49.826;10.880;2022-09-24T00:32:17;98440;;;10.25;77.12
4326;BME280;58429;49.826;10.880;2022-09-24T00:33:17;98447;;;10.26;77.05
4326;BME280;58429;49.826;10.880;2022-09-24T00:34:17;98448;;;10.27;76.91
4326;BME280;58429;49.826;10.880;2022-09-24T00:35:17;98444;;;10.27;76.92
4326;BME280;58429;49.826;10.880;2022-09-24T00:36:17;98440;;;10.28;76.91
4326;BME280;58429;49.826;10.880;2022-09-24T00:37:17;98443;;;10.22;76.97
4326;BME280;58429;49.826;10.880;2022-09-24T00:38:17;98447;;;10.24;77.12
4326;BME280;58429;49.826;10.880;2022-09-24T00:39:17;98448;;;10.23;77.05
4326;BME280;58429;49.826;10.880;2022-09-24T00:40:17;98447;;;10.23;76.99
4326;BME280;58429;49.826;10.880;2022-09-24T00:41:17;98439;;;10.24;76.89
4326;BME280;58429;49.826;10.880;2022-09-24T00:42:17;98451;;;10.23;76.93
4326;BME280;58429;49.826;10.880;2022-09-24T00:43:21;98448;;;10.18;76.94
4326;BME280;58429;49.826;10.880;2022-09-24T00:44:50;98440;;;10.19;76.93
4326;BME280;58429;49.826;10.880;2022-09-24T00:45:17;98444;;;10.23;76.92
4326;BME280;58429;49.826;10.880;2022-09-24T00:46:18;98444;;;10.17;77.05
4326;BME280;58429;49.826;10.880;2022-09-24T00:47:19;98444;;;10.18;76.91
4326;BME280;58429;49.826;10.880;2022-09-24T00:48:17;98444;;;10.17;77.01
4326;BME280;58429;49.826;10.880;2022-09-24T00:49:17;98438;;;10.1;77.12
4326;BME280;58429;49.826;10.880;2022-09-24T00:50:17;98434;;;10.12;77.07
4326;BME280;58429;49.826;10.880;2022-09-24T00:51:17;98438;;;10.14;77.12
4326;BME280;58429;49.826;10.880;2022-09-24T00:52:17;98439;;;10.13;77.07
4326;BME280;58429;49.826;10.880;2022-09-24T00:53:17;98432;;;10.14;77.1
4326;BME280;58429;49.826;10.880;2022-09-24T00:54:18;98438;;;10.09;77.23
4326;BME280;58429;49.826;10.880;2022-09-24T00:55:17;98430;;;10.07;77.04
4326;BME280;58429;49.826;10.880;2022-09-24T00:56:17;98437;;;10.08;77.13
4326;BME280;58429;49.826;10.880;2022-09-24T00:57:17;98440;;;10.07;77.23
4326;BME280;58429;49.826;10.880;2022-09-24T00:58:17;98435;;;10.06;77.22
4326;BME280;58429;49.826;10.880;2022-09-24T00:59:17;98438;;;10.07;77.22
4326;BME280;58429;49.826;10.880;2022-09-24T01:00:17;98435;;;10.05;77.2
4326;BME280;58429;49.826;10.880;2022-09-24T01:01:17;98435;;;10.05;77.24
4326;BME280;58429;49.826;10.880;2022-09-24T01:02:17;98437;;;10.09;77.28
4326;BME280;58429;49.826;10.880;2022-09-24T01:03:18;98438;;;10.06;77.19
4326;BME280;58429;49.826;10.880;2022-09-24T01:04:18;98429;;;10.03;77.13
4326;BME280;58429;49.826;10.880;2022-09-24T01:05:17;98434;;;10.06;77.21
4326;BME280;58429;49.826;10.880;2022-09-24T01:06:17;98434;;;10.05;77.26
4326;BME280;58429;49.826;10.880;2022-09-24T01:07:17;98432;;;10.07;77.2
4326;BME280;58429;49.826;10.880;2022-09-24T01:08:17;98430;;;10.1;77.16
4326;BME280;58429;49.826;10.880;2022-09-24T01:09:17;98429;;;10.04;77.06
4326;BME280;58429;49.826;10.880;2022-09-24T01:10:17;98434;;;10.03;77.1
4326;BME280;58429;49.826;10.880;2022-09-24T01:11:20;98434;;;10.03;77.14
4326;BME280;58429;49.826;10.880;2022-09-24T01:12:18;98438;;;10.05;77.17
4326;BME280;58429;49.826;10.880;2022-09-24T01:13:24;98433;;;10.03;77.17
4326;BME280;58429;49.826;10.880;2022-09-24T01:14:21;98425;;;9.99;77.31
4326;BME280;58429;49.826;10.880;2022-09-24T01:15:19;98428;;;10;77.25
4326;BME280;58429;49.826;10.880;2022-09-24T01:16:18;98427;;;10.02;77.17
4326;BME280;58429;49.826;10.880;2022-09-24T01:17:19;98426;;;10.01;77.29
4326;BME280;58429;49.826;10.880;2022-09-24T01:18:19;98423;;;10.04;77.27
4326;BME280;58429;49.826;10.880;2022-09-24T01:19:36;98425;;;9.97;77.23
4326;BME280;58429;49.826;10.880;2022-09-24T01:20:22;98427;;;9.98;77.17
4326;BME280;58429;49.826;10.880;2022-09-24T01:21:26;98425;;;9.95;77.38
4326;BME280;58429;49.826;10.880;2022-09-24T01:22:19;98419;;;9.96;77.36
4326;BME280;58429;49.826;10.880;2022-09-24T01:23:22;98417;;;9.99;77.33
4326;BME280;58429;49.826;10.880;2022-09-24T01:24:35;98423;;;9.95;77.47
4326;BME280;58429;49.826;10.880;2022-09-24T01:25:18;98417;;;9.93;77.54
4326;BME280;58429;49.826;10.880;2022-09-24T01:26:22;98417;;;9.95;77.66
4326;BME280;58429;49.826;10.880;2022-09-24T01:27:18;98420;;;9.93;77.62
4326;BME280;58429;49.826;10.880;2022-09-24T01:28:23;98424;;;9.95;77.53
4326;BME280;58429;49.826;10.880;2022-09-24T01:29:22;98420;;;9.97;77.72
4326;BME280;58429;49.826;10.880;2022-09-24T01:30:17;98423;;;9.93;77.71
4326;BME280;58429;49.826;10.880;2022-09-24T01:31:18;98418;;;9.94;77.66
4326;BME280;58429;49.826;10.880;2022-09-24T01:32:18;98421;;;9.94;77.78
4326;BME280;58429;49.826;10.880;2022-09-24T01:33:19;98422;;;9.94;77.71
4326;BME280;58429;49.826;10.880;2022-09-24T01:34:18;98418;;;9.94;77.72
4326;BME280;58429;49.826;10.880;2022-09-24T01:35:18;98418;;;9.93;77.65
4326;BME280;58429;49.826;10.880;2022-09-24T01:36:17;98411;;;9.9;77.83
4326;BME280;58429;49.826;10.880;2022-09-24T01:37:17;98411;;;9.92;77.75
4326;BME280;58429;49.826;10.880;2022-09-24T01:38:19;98410;;;9.93;77.84
4326;BME280;58429;49.826;10.880;2022-09-24T01:39:17;98408;;;9.91;77.87
4326;BME280;58429;49.826;10.880;2022-09-24T01:40:17;98406;;;9.92;77.81
4326;BME280;58429;49.826;10.880;2022-09-24T01:41:17;98399;;;9.92;77.86
4326;BME280;58429;49.826;10.880;2022-09-24T01:42:17;98403;;;9.87;77.99
4326;BME280;58429;49.826;10.880;2022-09-24T01:43:17;98396;;;9.85;77.98
4326;BME280;58429;49.826;10.880;2022-09-24T01:44:17;98390;;;9.84;78.02
4326;BME280;58429;49.826;10.880;2022-09-24T01:45:17;98390;;;9.85;77.95
4326;BME280;58429;49.826;10.880;2022-09-24T01:46:17;98391;;;9.84;77.9
4326;BME280;58429;49.826;10.880;2022-09-24T01:47:17;98391;;;9.81;77.79
4326;BME280;58429;49.826;10.880;2022-09-24T01:48:17;98387;;;9.84;77.71
4326;BME280;58429;49.826;10.880;2022-09-24T01:49:17;98383;;;9.84;77.76
4326;BME280;58429;49.826;10.880;2022-09-24T01:50:17;98377;;;9.79;77.84
4326;BME280;58429;49.826;10.880;2022-09-24T01:51:17;98377;;;9.81;77.78
4326;BME280;58429;49.826;10.880;2022-09-24T01:52:19;98379;;;9.78;77.81
4326;BME280;58429;49.826;10.880;2022-09-24T01:53:18;98375;;;9.8;77.76
4326;BME280;58429;49.826;10.880;2022-09-24T01:54:17;98367;;;9.8;77.83
4326;BME280;58429;49.826;10.880;2022-09-24T01:55:18;98360;;;9.82;77.74
4326;BME280;58429;49.826;10.880;2022-09-24T01:56:17;98363;;;9.81;77.75
4326;BME280;58429;49.826;10.880;2022-09-24T01:57:18;98366;;;9.78;77.71
4326;BME280;58429;49.826;10.880;2022-09-24T01:58:17;98363;;;9.81;77.7
4326;BME280;58429;49.826;10.880;2022-09-24T01:59:18;98370;;;9.77;77.64
4326;BME280;58429;49.826;10.880;2022-09-24T02:00:17;98363;;;9.78;77.61
4326;BME280;58429;49.826;10.880;2022-09-24T02:01:18;98366;;;9.78;77.64
4326;BME280;58429;49.826;10.880;2022-09-24T02:02:18;98359;;;9.75;77.76
4326;BME280;58429;49.826;10.880;2022-09-24T02:03:17;98366;;;9.74;77.87
4326;BME280;58429;49.826;10.880;2022-09-24T02:04:17;98365;;;9.69;78
4326;BME280;58429;49.826;10.880;2022-09-24T02:05:18;98363;;;9.67;78.11
4326;BME280;58429;49.826;10.880;2022-09-24T02:06:18;98367;;;9.66;78.02
4326;BME280;58429;49.826;10.880;2022-09-24T02:07:17;98357;;;9.65;77.98
4326;BME280;58429;49.826;10.880;2022-09-24T02:08:17;98351;;;9.63;78.02
4326;BME280;58429;49.826;10.880;2022-09-24T02:09:33;98353;;;9.63;78.01
4326;BME280;58429;49.826;10.880;2022-09-24T02:10:18;98344;;;9.64;78
4326;BME280;58429;49.826;10.880;2022-09-24T02:11:17;98350;;;9.61;77.96
4326;BME280;58429;49.826;10.880;2022-09-24T02:12:18;98346;;;9.58;77.9
4326;BME280;58429;49.826;10.880;2022-09-24T02:13:17;98348;;;9.6;77.85
4326;BME280;58429;49.826;10.880;2022-09-24T02:14:17;98350;;;9.59;77.81
4326;BME280;58429;49.826;10.880;2022-09-24T02:15:17;98358;;;9.59;77.87
4326;BME280;58429;49.826;10.880;2022-09-24T02:16:18;98357;;;9.59;77.8
4326;BME280;58429;49.826;10.880;2022-09-24T02:17:17;98356;;;9.59;77.74
4326;BME280;58429;49.826;10.880;2022-09-24T02:18:18;98353;;;9.58;77.73
4326;BME280;58429;49.826;10.880;2022-09-24T02:19:18;98346;;;9.58;77.69
4326;BME280;58429;49.826;10.880;2022-09-24T02:20:19;98356;;;9.56;77.88
4326;BME280;58429;49.826;10.880;2022-09-24T02:21:17;98343;;;9.52;77.91
4326;BME280;58429;49.826;10.880;2022-09-24T02:22:17;98338;;;9.5;77.8
4326;BME280;58429;49.826;10.880;2022-09-24T02:23:17;98338;;;9.53;77.8
4326;BME280;58429;49.826;10.880;2022-09-24T02:24:18;98334;;;9.47;77.68
4326;BME280;58429;49.826;10.880;2022-09-24T02:25:18;98339;;;9.48;77.7
4326;BME280;58429;49.826;10.880;2022-09-24T02:26:17;98338;;;9.48;77.61
4326;BME280;58429;49.826;10.880;2022-09-24T02:27:17;98336;;;9.44;77.65
4326;BME280;58429;49.826;10.880;2022-09-24T02:28:17;98330;;;9.43;77.71
4326;BME280;58429;49.826;10.880;2022-09-24T02:29:17;98330;;;9.41;77.79
4326;BME280;58429;49.826;10.880;2022-09-24T02:30:17;98334;;;9.41;77.8
4326;BME280;58429;49.826;10.880;2022-09-24T02:31:17;98334;;;9.38;77.81
4326;BME280;58429;49.826;10.880;2022-09-24T02:32:17;98332;;;9.37;77.83
4326;BME280;58429;49.826;10.880;2022-09-24T02:33:17;98335;;;9.36;77.87
4326;BME280;58429;49.826;10.880;2022-09-24T02:34:17;98330;;;9.37;77.98
4326;BME280;58429;49.826;10.880;2022-09-24T02:35:17;98335;;;9.35;77.98
4326;BME280;58429;49.826;10.880;2022-09-24T02:36:17;98329;;;9.35;77.98
4326;BME280;58429;49.826;10.880;2022-09-24T02:37:17;98335;;;9.35;78.07
4326;BME280;58429;49.826;10.880;2022-09-24T02:38:17;98336;;;9.35;78.23
4326;BME280;58429;49.826;10.880;2022-09-24T02:39:17;98334;;;9.33;78.05
4326;BME280;58429;49.826;10.880;2022-09-24T02:40:17;98338;;;9.35;78.05
4326;BME280;58429;49.826;10.880;2022-09-24T02:41:17;98336;;;9.35;78.03
4326;BME280;58429;49.826;10.880;2022-09-24T02:42:17;98338;;;9.31;78.22
4326;BME280;58429;49.826;10.880;2022-09-24T02:43:17;98328;;;9.32;78.14
4326;BME280;58429;49.826;10.880;2022-09-24T02:44:17;98334;;;9.32;78.12
4326;BME280;58429;49.826;10.880;2022-09-24T02:45:17;98328;;;9.3;78.01
4326;BME280;58429;49.826;10.880;2022-09-24T02:46:17;98332;;;9.31;78.01
4326;BME280;58429;49.826;10.880;2022-09-24T02:47:17;98325;;;9.3;78.08
4326;BME280;58429;49.826;10.880;2022-09-24T02:48:17;98339;;;9.32;78.12
4326;BME280;58429;49.826;10.880;2022-09-24T02:49:17;98334;;;9.29;78.14
4326;BME280;58429;49.826;10.880;2022-09-24T02:50:17;98331;;;9.27;78.15
4326;BME280;58429;49.826;10.880;2022-09-24T02:51:17;98331;;;9.28;78.21
4326;BME280;58429;49.826;10.880;2022-09-24T02:52:17;98331;;;9.28;78.25
4326;BME280;58429;49.826;10.880;2022-09-24T02:53:17;98329;;;9.23;78.4
4326;BME280;58429;49.826;10.880;2022-09-24T02:54:17;98330;;;9.26;78.53
4326;BME280;58429;49.826;10.880;2022-09-24T02:55:17;98328;;;9.28;78.43
4326;BME280;58429;49.826;10.880;2022-09-24T02:56:17;98335;;;9.24;78.57
4326;BME280;58429;49.826;10.880;2022-09-24T02:57:17;98328;;;9.2;78.69
4326;BME280;58429;49.826;10.880;2022-09-24T02:58:17;98324;;;9.19;78.87
4326;BME280;58429;49.826;10.880;2022-09-24T02:59:17;98323;;;9.23;78.79
4326;BME280;58429;49.826;10.880;2022-09-24T03:00:17;98324;;;9.24;78.91
4326;BME280;58429;49.826;10.880;2022-09-24T03:01:17;98317;;;9.23;79.01
4326;BME280;58429;49.826;10.880;2022-09-24T03:02:17;98323;;;9.17;79.07
4326;BME280;58429;49.826;10.880;2022-09-24T03:03:17;98327;;;9.16;79.2
4326;BME280;58429;49.826;10.880;2022-09-24T03:04:17;98324;;;9.16;79.32
4326;BME280;58429;49.826;10.880;2022-09-24T03:05:17;98323;;;9.2;79.11
4326;BME280;58429;49.826;10.880;2022-09-24T03:06:17;98322;;;9.16;79.04
4326;BME280;58429;49.826;10.880;2022-09-24T03:07:17;98325;;;9.18;79.11
4326;BME280;58429;49.826;10.880;2022-09-24T03:08:17;98319;;;9.18;79.04
4326;BME280;58429;49.826;10.880;2022-09-24T03:09:17;98322;;;9.2;79.09
4326;BME280;58429;49.826;10.880;2022-09-24T03:10:17;98320;;;9.16;79.29
4326;BME280;58429;49.826;10.880;2022-09-24T03:11:17;98327;;;9.15;79.16
4326;BME280;58429;49.826;10.880;2022-09-24T03:12:17;98330;;;9.13;79.31
4326;BME280;58429;49.826;10.880;2022-09-24T03:13:17;98329;;;9.16;79.33
4326;BME280;58429;49.826;10.880;2022-09-24T03:14:17;98329;;;9.18;79.22
4326;BME280;58429;49.826;10.880;2022-09-24T03:15:17;98329;;;9.13;79.42
4326;BME280;58429;49.826;10.880;2022-09-24T03:16:17;98332;;;9.14;79.39
4326;BME280;58429;49.826;10.880;2022-09-24T03:17:17;98328;;;9.12;79.38
4326;BME280;58429;49.826;10.880;2022-09-24T03:18:17;98332;;;9.16;79.28
4326;BME280;58429;49.826;10.880;2022-09-24T03:19:17;98329;;;9.15;79.29
4326;BME280;58429;49.826;10.880;2022-09-24T03:20:17;98326;;;9.16;79.4
4326;BME280;58429;49.826;10.880;2022-09-24T03:21:18;98332;;;9.13;79.46
4326;BME280;58429;49.826;10.880;2022-09-24T03:22:17;98322;;;9.13;79.49
4326;BME280;58429;49.826;10.880;2022-09-24T03:23:17;98314;;;9.12;79.52
4326;BME280;58429;49.826;10.880;2022-09-24T03:24:17;98316;;;9.14;79.43
4326;BME280;58429;49.826;10.880;2022-09-24T03:25:17;98320;;;9.13;79.31
4326;BME280;58429;49.826;10.880;2022-09-24T03:26:17;98317;;;9.16;79.29
4326;BME280;58429;49.826;10.880;2022-09-24T03:27:17;98311;;;9.13;79.27
4326;BME280;58429;49.826;10.880;2022-09-24T03:28:17;98304;;;9.15;79.33
4326;BME280;58429;49.826;10.880;2022-09-24T03:29:17;98302;;;9.12;79.4
4326;BME280;58429;49.826;10.880;2022-09-24T03:30:17;98297;;;9.12;79.38
4326;BME280;58429;49.826;10.880;2022-09-24T03:31:17;98297;;;9.15;79.4
4326;BME280;58429;49.826;10.880;2022-09-24T03:32:17;98291;;;9.12;79.38
4326;BME280;58429;49.826;10.880;2022-09-24T03:33:17;98291;;;9.16;79.38
4326;BME280;58429;49.826;10.880;2022-09-24T03:34:17;98297;;;9.17;79.36
4326;BME280;58429;49.826;10.880;2022-09-24T03:35:17;98296;;;9.14;79.43
4326;BME280;58429;49.826;10.880;2022-09-24T03:36:18;98293;;;9.11;79.51
4326;BME280;58429;49.826;10.880;2022-09-24T03:37:17;98304;;;9.11;79.59
4326;BME280;58429;49.826;10.880;2022-09-24T03:38:17;98304;;;9.12;79.55
4326;BME280;58429;49.826;10.880;2022-09-24T03:39:17;98299;;;9.1;79.57
4326;BME280;58429;49.826;10.880;2022-09-24T03:40:17;98304;;;9.09;79.61
4326;BME280;58429;49.826;10.880;2022-09-24T03:41:17;98302;;;9.08;79.6
4326;BME280;58429;49.826;10.880;2022-09-24T03:42:17;98303;;;9.08;79.74
4326;BME280;58429;49.826;10.880;2022-09-24T03:43:17;98299;;;9.06;80.02
4326;BME280;58429;49.826;10.880;2022-09-24T03:44:17;98308;;;9.07;80.03
4326;BME280;58429;49.826;10.880;2022-09-24T03:45:17;98304;;;9.02;80.17
4326;BME280;58429;49.826;10.880;2022-09-24T03:46:17;98312;;;8.99;80.04
4326;BME280;58429;49.826;10.880;2022-09-24T03:47:17;98315;;;8.98;80.31
4326;BME280;58429;49.826;10.880;2022-09-24T03:48:17;98319;;;8.94;80.18
4326;BME280;58429;49.826;10.880;2022-09-24T03:49:17;98314;;;8.92;80.41
4326;BME280;58429;49.826;10.880;2022-09-24T03:50:17;98319;;;8.92;80.42
4326;BME280;58429;49.826;10.880;2022-09-24T03:51:17;98314;;;8.88;80.54
4326;BME280;58429;49.826;10.880;2022-09-24T03:52:17;98311;;;8.85;80.54
4326;BME280;58429;49.826;10.880;2022-09-24T03:53:17;98314;;;8.85;80.47
4326;BME280;58429;49.826;10.880;2022-09-24T03:54:17;98316;;;8.85;80.4
4326;BME280;58429;49.826;10.880;2022-09-24T03:55:17;98312;;;8.84;80.66
4326;BME280;58429;49.826;10.880;2022-09-24T03:56:17;98315;;;8.8;80.59
4326;BME280;58429;49.826;10.880;2022-09-24T03:57:17;98320;;;8.81;80.51
4326;BME280;58429;49.826;10.880;2022-09-24T03:58:17;98319;;;8.8;80.67
4326;BME280;58429;49.826;10.880;2022-09-24T03:59:17;98309;;;8.81;80.67
4326;BME280;58429;49.826;10.880;2022-09-24T04:00:17;98313;;;8.75;80.86
4326;BME280;58429;49.826;10.880;2022-09-24T04:01:17;98310;;;8.77;80.75
4326;BME280;58429;49.826;10.880;2022-09-24T04:02:17;98318;;;8.74;80.6
4326;BME280;58429;49.826;10.880;2022-09-24T04:03:17;98311;;;8.73;80.52
4326;BME280;58429;49.826;10.880;2022-09-24T04:04:17;98320;;;8.78;80.6
4326;BME280;58429;49.826;10.880;2022-09-24T04:05:17;98318;;;8.73;80.67
4326;BME280;58429;49.826;10.880;2022-09-24T04:06:17;98314;;;8.74;80.68
4326;BME280;58429;49.826;10.880;2022-09-24T04:07:17;98323;;;8.69;80.61
4326;BME280;58429;49.826;10.880;2022-09-24T04:08:17;98322;;;8.7;80.61
4326;BME280;58429;49.826;10.880;2022-09-24T04:09:17;98325;;;8.67;80.7
4326;BME280;58429;49.826;10.880;2022-09-24T04:10:17;98328;;;8.65;80.87
4326;BME280;58429;49.826;10.880;2022-09-24T04:11:17;98336;;;8.63;80.83
4326;BME280;58429;49.826;10.880;2022-09-24T04:12:17;98334;;;8.62;80.98
4326;BME280;58429;49.826;10.880;2022-09-24T04:13:17;98326;;;8.62;81
4326;BME280;58429;49.826;10.880;2022-09-24T04:14:17;98324;;;8.61;80.9
4326;BME280;58429;49.826;10.880;2022-09-24T04:15:17;98321;;;8.59;80.98
4326;BME280;58429;49.826;10.880;2022-09-24T04:16:17;98330;;;8.61;80.93
4326;BME280;58429;49.826;10.880;2022-09-24T04:17:17;98316;;;8.65;80.84
4326;BME280;58429;49.826;10.880;2022-09-24T04:18:17;98312;;;8.64;80.9
4326;BME280;58429;49.826;10.880;2022-09-24T04:19:17;98315;;;8.64;80.82
4326;BME280;58429;49.826;10.880;2022-09-24T04:20:17;98310;;;8.64;80.76
4326;BME280;58429;49.826;10.880;2022-09-24T04:21:17;98317;;;8.67;80.8
4326;BME280;58429;49.826;10.880;2022-09-24T04:22:17;98307;;;8.67;80.91
4326;BME280;58429;49.826;10.880;2022-09-24T04:23:17;98307;;;8.74;80.85
4326;BME280;58429;49.826;10.880;2022-09-24T04:24:17;98316;;;8.68;80.86
4326;BME280;58429;49.826;10.880;2022-09-24T04:25:17;98318;;;8.69;81.03
4326;BME280;58429;49.826;10.880;2022-09-24T04:26:17;98310;;;8.67;81.24
4326;BME280;58429;49.826;10.880;2022-09-24T04:27:17;98317;;;8.6;81.44
4326;BME280;58429;49.826;10.880;2022-09-24T04:28:17;98318;;;8.6;81.67
4326;BME280;58429;49.826;10.880;2022-09-24T04:29:17;98318;;;8.58;81.67
4326;BME280;58429;49.826;10.880;2022-09-24T04:30:17;98323;;;8.56;81.72
4326;BME280;58429;49.826;10.880;2022-09-24T04:31:17;98316;;;8.59;81.45
4326;BME280;58429;49.826;10.880;2022-09-24T04:32:17;98317;;;8.6;81.32
4326;BME280;58429;49.826;10.880;2022-09-24T04:33:17;98319;;;8.63;81.23
4326;BME280;58429;49.826;10.880;2022-09-24T04:34:17;98319;;;8.63;81.2
4326;BME280;58429;49.826;10.880;2022-09-24T04:35:17;98309;;;8.65;81.17
4326;BME280;58429;49.826;10.880;2022-09-24T04:36:17;98307;;;8.67;81.25
4326;BME280;58429;49.826;10.880;2022-09-24T04:37:17;98308;;;8.71;81.13
4326;BME280;58429;49.826;10.880;2022-09-24T04:38:17;98309;;;8.76;81.2
4326;BME280;58429;49.826;10.880;2022-09-24T04:39:17;98305;;;8.73;81.17
4326;BME280;58429;49.826;10.880;2022-09-24T04:40:17;98315;;;8.72;81.38
4326;BME280;58429;49.826;10.880;2022-09-24T04:41:17;98316;;;8.69;81.57
4326;BME280;58429;49.826;10.880;2022-09-24T04:42:17;98307;;;8.68;81.66
4326;BME280;58429;49.826;10.880;2022-09-24T04:43:17;98306;;;8.68;81.55
4326;BME280;58429;49.826;10.880;2022-09-24T04:44:17;98308;;;8.65;81.7
4326;BME280;58429;49.826;10.880;2022-09-24T04:45:17;98308;;;8.68;81.59
4326;BME280;58429;49.826;10.880;2022-09-24T04:46:17;98307;;;8.66;81.46
4326;BME280;58429;49.826;10.880;2022-09-24T04:47:17;98305;;;8.71;81.39
4326;BME280;58429;49.826;10.880;2022-09-24T04:48:17;98314;;;8.73;81.33
4326;BME280;58429;49.826;10.880;2022-09-24T04:49:17;98316;;;8.68;81.37
4326;BME280;58429;49.826;10.880;2022-09-24T04:50:17;98309;;;8.75;81.31
4326;BME280;58429;49.826;10.880;2022-09-24T04:51:17;98309;;;8.76;81.27
4326;BME280;58429;49.826;10.880;2022-09-24T04:52:17;98307;;;8.7;81.27
4326;BME280;58429;49.826;10.880;2022-09-24T04:53:17;98313;;;8.76;81.21
4326;BME280;58429;49.826;10.880;2022-09-24T04:54:17;98302;;;8.75;81.19
4326;BME280;58429;49.826;10.880;2022-09-24T04:55:17;98300;;;8.75;81.2
4326;BME280;58429;49.826;10.880;2022-09-24T04:56:17;98301;;;8.77;81.2
4326;BME280;58429;49.826;10.880;2022-09-24T04:57:17;98306;;;8.77;81.3
4326;BME280;58429;49.826;10.880;2022-09-24T04:58:17;98302;;;8.78;81.24
4326;BME280;58429;49.826;10.880;2022-09-24T04:59:17;98312;;;8.77;81.21
4326;BME280;58429;49.826;10.880;2022-09-24T05:00:18;98301;;;8.81;81.22
4326;BME280;58429;49.826;10.880;2022-09-24T05:01:17;98305;;;8.8;81.26
4326;BME280;58429;49.826;10.880;2022-09-24T05:02:17;98301;;;8.8;81.27
4326;BME280;58429;49.826;10.880;2022-09-24T05:03:17;98296;;;8.81;81.26
4326;BME280;58429;49.826;10.880;2022-09-24T05:04:17;98304;;;8.82;81.25
4326;BME280;58429;49.826;10.880;2022-09-24T05:05:17;98293;;;8.84;81.23
4326;BME280;58429;49.826;10.880;2022-09-24T05:06:17;98294;;;8.84;81.17
4326;BME280;58429;49.826;10.880;2022-09-24T05:07:17;98295;;;8.83;81.23
4326;BME280;58429;49.826;10.880;2022-09-24T05:08:17;98293;;;8.82;81.3
4326;BME280;58429;49.826;10.880;2022-09-24T05:09:17;98298;;;8.81;81.38
4326;BME280;58429;49.826;10.880;2022-09-24T05:10:17;98300;;;8.84;81.49
4326;BME280;58429;49.826;10.880;2022-09-24T05:11:17;98294;;;8.85;81.39
4326;BME280;58429;49.826;10.880;2022-09-24T05:12:17;98298;;;8.85;81.45
4326;BME280;58429;49.826;10.880;2022-09-24T05:13:17;98298;;;8.84;81.42
4326;BME280;58429;49.826;10.880;2022-09-24T05:14:17;98295;;;8.85;81.39
4326;BME280;58429;49.826;10.880;2022-09-24T05:15:17;98298;;;8.83;81.39
4326;BME280;58429;49.826;10.880;2022-09-24T05:16:17;98304;;;8.85;81.34
4326;BME280;58429;49.826;10.880;2022-09-24T05:17:17;98296;;;8.84;81.37
4326;BME280;58429;49.826;10.880;2022-09-24T05:18:17;98309;;;8.84;81.34
4326;BME280;58429;49.826;10.880;2022-09-24T05:19:17;98301;;;8.85;81.28
4326;BME280;58429;49.826;10.880;2022-09-24T05:20:17;98306;;;8.82;81.28
4326;BME280;58429;49.826;10.880;2022-09-24T05:21:17;98304;;;8.83;81.24
4326;BME280;58429;49.826;10.880;2022-09-24T05:22:17;98302;;;8.82;81.29
4326;BME280;58429;49.826;10.880;2022-09-24T05:23:17;98303;;;8.84;81.38
4326;BME280;58429;49.826;10.880;2022-09-24T05:24:17;98307;;;8.84;81.38
4326;BME280;58429;49.826;10.880;2022-09-24T05:25:18;98305;;;8.84;81.34
4326;BME280;58429;49.826;10.880;2022-09-24T05:26:17;98305;;;8.87;81.32
4326;BME280;58429;49.826;10.880;2022-09-24T05:27:17;98305;;;8.86;81.3
4326;BME280;58429;49.826;10.880;2022-09-24T05:28:17;98314;;;8.87;81.41
4326;BME280;58429;49.826;10.880;2022-09-24T05:29:17;98309;;;8.84;81.71
4326;BME280;58429;49.826;10.880;2022-09-24T05:30:18;98312;;;8.84;81.44
4326;BME280;58429;49.826;10.880;2022-09-24T05:31:17;98310;;;8.84;81.45
4326;BME280;58429;49.826;10.880;2022-09-24T05:32:18;98307;;;8.82;81.39
4326;BME280;58429;49.826;10.880;2022-09-24T05:33:17;98304;;;8.85;81.36
4326;BME280;58429;49.826;10.880;2022-09-24T05:34:17;98307;;;8.84;81.39
4326;BME280;58429;49.826;10.880;2022-09-24T05:35:17;98303;;;8.85;81.41